createdAt,value
2023-02-24T00:02:04.196Z,100.00
2023-02-24T00:04:39.808Z,100.00
2023-02-24T00:07:10.874Z,100.00
2023-02-24T00:09:38.307Z,100.00
2023-02-24T00:12:08.982Z,100.00
2023-02-24T00:14:37.974Z,100.00
2023-02-24T00:17:08.149Z,100.00
2023-02-24T00:19:34.859Z,100.00
2023-02-24T00:22:03.167Z,100.00
2023-02-24T00:24:30.525Z,100.00
2023-02-24T00:26:59.555Z,100.00
2023-02-24T00:29:27.277Z,100.00
2023-02-24T00:31:56.828Z,100.00
2023-02-24T00:34:23.920Z,100.00
2023-02-24T00:36:50.369Z,100.00
2023-02-24T00:39:16.881Z,99.70
2023-02-24T00:41:44.622Z,98.00
2023-02-24T00:44:14.222Z,97.42
2023-02-24T00:46:44.683Z,97.22
2023-02-24T00:49:20.789Z,97.60
2023-02-24T00:51:49.230Z,97.13
2023-02-24T00:54:17.503Z,96.64
2023-02-24T00:56:45.864Z,96.12
2023-02-24T00:59:14.742Z,96.71
2023-02-24T01:01:42.824Z,96.21
2023-02-24T01:04:12.434Z,96.45
2023-02-24T01:06:45.100Z,96.76
2023-02-24T01:09:15.320Z,96.65
2023-02-24T01:12:03.055Z,96.82
2023-02-24T01:14:31.849Z,97.32
2023-02-24T01:16:59.051Z,97.18
2023-02-24T01:19:31.604Z,97.44
2023-02-24T01:21:58.964Z,98.03
2023-02-24T01:24:25.988Z,98.65
2023-02-24T01:26:52.632Z,98.13
2023-02-24T01:29:19.246Z,98.34
2023-02-24T01:31:48.658Z,99.40
2023-02-24T01:34:17.191Z,99.41
2023-02-24T01:36:44.360Z,98.80
2023-02-24T01:39:13.557Z,98.55
2023-02-24T01:41:43.853Z,99.57
2023-02-24T01:44:22.351Z,99.95
2023-02-24T01:46:52.316Z,100.00
2023-02-24T01:49:29.821Z,100.00
2023-02-24T01:52:04.013Z,100.00
2023-02-24T01:54:35.736Z,100.00
2023-02-24T01:57:05.795Z,99.68
2023-02-24T01:59:35.579Z,99.57
2023-02-24T02:02:05.400Z,100.00
2023-02-24T02:04:39.641Z,100.00
2023-02-24T02:07:10.027Z,100.00
2023-02-24T02:09:38.682Z,100.00
2023-02-24T02:12:05.352Z,100.00
2023-02-24T02:14:32.378Z,100.00
2023-02-24T02:17:07.905Z,100.00
2023-02-24T02:20:15.823Z,100.00
2023-02-24T02:23:00.816Z,98.88
2023-02-24T02:25:55.613Z,98.90
2023-02-24T02:28:31.594Z,98.31
2023-02-24T02:31:37.731Z,98.22
2023-02-24T02:34:07.326Z,97.99
2023-02-24T02:37:05.898Z,97.45
2023-02-24T02:39:47.644Z,97.90
2023-02-24T02:42:33.266Z,98.34
2023-02-24T02:45:06.425Z,98.59
2023-02-24T02:47:41.388Z,98.46
2023-02-24T02:50:13.169Z,98.87
2023-02-24T02:53:00.608Z,99.11
2023-02-24T02:55:48.520Z,99.14
2023-02-24T02:58:23.720Z,99.16
2023-02-24T03:01:02.714Z,98.69
2023-02-24T03:03:34.009Z,97.66
2023-02-24T03:06:06.580Z,98.27
2023-02-24T03:08:37.336Z,99.27
2023-02-24T03:11:06.213Z,99.73
2023-02-24T03:13:37.868Z,100.00
2023-02-24T03:16:06.554Z,100.00
2023-02-24T03:18:38.422Z,100.00
2023-02-24T03:21:29.006Z,100.00
2023-02-24T03:23:55.878Z,100.00
2023-02-24T03:26:30.024Z,100.00
2023-02-24T03:29:18.257Z,100.00
2023-02-24T03:31:54.231Z,100.00
2023-02-24T03:34:42.803Z,100.00
2023-02-24T03:37:09.522Z,100.00
2023-02-24T03:39:36.642Z,100.00
2023-02-24T03:42:03.066Z,100.00
2023-02-24T03:44:29.708Z,100.00
2023-02-24T03:46:56.350Z,100.00
2023-02-24T03:49:25.457Z,99.76
2023-02-24T03:52:21.672Z,99.18
2023-02-24T03:55:11.799Z,98.90
2023-02-24T03:58:15.272Z,98.00
2023-02-24T04:01:07.754Z,97.44
2023-02-24T04:04:07.554Z,97.24
2023-02-24T04:06:42.853Z,97.46
2023-02-24T04:09:29.310Z,97.84
2023-02-24T04:12:04.932Z,98.52
2023-02-24T04:14:46.372Z,98.76
2023-02-24T04:17:54.363Z,99.62
2023-02-24T04:20:24.932Z,99.36
2023-02-24T04:22:57.055Z,99.42
2023-02-24T04:25:26.520Z,99.82
2023-02-24T04:27:55.871Z,99.34
2023-02-24T04:30:26.922Z,98.19
2023-02-24T04:32:53.641Z,97.81
2023-02-24T04:35:23.026Z,97.75
2023-02-24T04:37:50.628Z,97.93
2023-02-24T04:40:22.231Z,98.03
2023-02-24T04:42:51.942Z,98.36
2023-02-24T04:45:24.785Z,98.60
2023-02-24T04:47:56.205Z,98.81
2023-02-24T04:50:25.308Z,97.29
2023-02-24T04:52:57.710Z,96.88
2023-02-24T04:55:29.188Z,96.41
2023-02-24T04:57:56.902Z,96.19
2023-02-24T05:00:26.498Z,96.66
2023-02-24T05:02:56.084Z,97.11
2023-02-24T05:05:25.686Z,97.52
2023-02-24T05:08:03.574Z,97.08
2023-02-24T05:10:35.919Z,97.07
2023-02-24T05:13:02.707Z,97.00
2023-02-24T05:15:33.436Z,97.16
2023-02-24T05:18:08.802Z,97.52
2023-02-24T05:21:13.270Z,97.48
2023-02-24T05:23:45.336Z,97.46
2023-02-24T05:26:16.373Z,97.30
2023-02-24T05:28:46.975Z,95.40
2023-02-24T05:31:16.124Z,92.81
2023-02-24T05:33:44.842Z,93.19
2023-02-24T05:36:17.170Z,93.19
2023-02-24T05:38:48.280Z,93.63
2023-02-24T05:41:17.684Z,92.34
2023-02-24T05:43:52.563Z,90.99
2023-02-24T05:46:28.297Z,88.96
2023-02-24T05:49:00.278Z,89.09
2023-02-24T05:51:35.318Z,90.03
2023-02-24T05:54:07.506Z,91.21
2023-02-24T05:56:36.775Z,91.18
2023-02-24T05:59:06.538Z,90.21
2023-02-24T06:01:41.433Z,90.17
2023-02-24T06:04:09.403Z,89.19
2023-02-24T06:06:41.093Z,89.52
2023-02-24T06:09:12.994Z,89.49
2023-02-24T06:11:41.158Z,89.16
2023-02-24T06:14:09.106Z,90.12
2023-02-24T06:16:37.662Z,90.20
2023-02-24T06:19:05.257Z,90.27
2023-02-24T06:21:32.054Z,90.62
2023-02-24T06:23:59.548Z,90.51
2023-02-24T06:26:29.861Z,90.27
2023-02-24T06:28:59.885Z,89.56
2023-02-24T06:31:27.541Z,89.94
2023-02-24T06:33:54.392Z,89.68
2023-02-24T06:36:21.767Z,90.50
2023-02-24T06:38:49.654Z,90.44
2023-02-24T06:41:16.484Z,90.30
2023-02-24T06:43:45.268Z,89.98
2023-02-24T06:46:15.371Z,90.14
2023-02-24T06:48:42.632Z,89.88
2023-02-24T06:51:13.686Z,89.72
2023-02-24T06:53:43.194Z,89.40
2023-02-24T06:56:15.329Z,89.54
2023-02-24T06:58:47.158Z,89.98
2023-02-24T07:01:25.623Z,89.68
2023-02-24T07:04:17.654Z,90.13
2023-02-24T07:06:52.018Z,89.23
2023-02-24T07:09:21.979Z,88.54
2023-02-24T07:11:52.472Z,88.79
2023-02-24T07:14:27.711Z,86.79
2023-02-24T07:16:55.039Z,86.30
2023-02-24T07:19:25.615Z,86.33
2023-02-24T07:21:59.985Z,86.49
2023-02-24T07:24:39.244Z,85.55
2023-02-24T07:27:09.448Z,86.00
2023-02-24T07:29:37.708Z,85.91
2023-02-24T07:32:08.614Z,85.97
2023-02-24T07:34:39.914Z,85.70
2023-02-24T07:37:08.343Z,85.98
2023-02-24T07:39:39.716Z,86.60
2023-02-24T07:42:08.952Z,86.37
2023-02-24T07:44:35.575Z,86.39
2023-02-24T07:47:07.823Z,86.22
2023-02-24T07:49:35.243Z,87.85
2023-02-24T07:52:02.016Z,88.35
2023-02-24T07:54:30.253Z,88.21
2023-02-24T07:56:59.146Z,88.00
2023-02-24T07:59:30.470Z,88.19
2023-02-24T08:01:57.539Z,88.15
2023-02-24T08:04:28.587Z,88.60
2023-02-24T08:06:56.413Z,88.16
2023-02-24T08:09:44.925Z,86.52
2023-02-24T08:12:21.629Z,86.85
2023-02-24T08:14:51.590Z,86.37
2023-02-24T08:17:20.078Z,84.90
2023-02-24T08:19:48.867Z,84.13
2023-02-24T08:22:19.802Z,84.66
2023-02-24T08:24:50.205Z,85.62
2023-02-24T08:27:20.603Z,85.37
2023-02-24T08:30:01.391Z,85.00
2023-02-24T08:32:38.467Z,84.07
2023-02-24T08:35:14.527Z,83.69
2023-02-24T08:37:49.166Z,84.63
2023-02-24T08:40:34.360Z,85.24
2023-02-24T08:43:25.675Z,85.98
2023-02-24T08:46:00.890Z,86.80
2023-02-24T08:48:37.403Z,86.08
2023-02-24T08:51:11.813Z,85.52
2023-02-24T08:53:42.108Z,86.52
2023-02-24T08:56:11.603Z,87.40
2023-02-24T08:58:49.425Z,87.04
2023-02-24T09:01:19.764Z,87.13
2023-02-24T09:03:48.349Z,88.63
2023-02-24T09:06:25.470Z,88.00
2023-02-24T09:09:13.626Z,87.82
2023-02-24T09:11:44.200Z,87.86
2023-02-24T09:14:25.902Z,88.71
2023-02-24T09:17:02.124Z,88.38
2023-02-24T09:19:47.918Z,86.22
2023-02-24T09:22:32.072Z,85.89
2023-02-24T09:25:40.367Z,86.41
2023-02-24T09:28:17.398Z,87.31
2023-02-24T09:30:53.809Z,88.03
2023-02-24T09:33:24.827Z,87.07
2023-02-24T09:35:53.118Z,85.55
2023-02-24T09:38:43.500Z,86.54
2023-02-24T09:41:30.138Z,86.83
2023-02-24T09:44:18.367Z,87.40
2023-02-24T09:47:42.633Z,87.42
2023-02-24T09:50:46.912Z,88.32
2023-02-24T09:53:17.216Z,87.41
2023-02-24T09:56:03.897Z,86.81
2023-02-24T09:58:43.651Z,87.01
2023-02-24T10:01:43.024Z,86.94
2023-02-24T10:04:21.162Z,86.67
2023-02-24T10:06:50.688Z,86.88
2023-02-24T10:09:38.108Z,86.88
2023-02-24T10:12:20.035Z,84.68
2023-02-24T10:14:52.970Z,85.18
2023-02-24T10:17:23.285Z,85.94
2023-02-24T10:20:13.996Z,85.75
2023-02-24T10:22:57.906Z,86.58
2023-02-24T10:25:40.436Z,86.31
2023-02-24T10:28:22.028Z,86.18
2023-02-24T10:31:25.449Z,85.40
2023-02-24T10:33:57.050Z,82.88
2023-02-24T10:36:35.202Z,83.33
2023-02-24T10:39:15.596Z,81.89
2023-02-24T10:41:45.911Z,82.01
2023-02-24T10:44:20.028Z,81.46
2023-02-24T10:46:46.756Z,81.84
2023-02-24T10:49:16.625Z,81.56
2023-02-24T10:51:51.276Z,82.12
2023-02-24T10:54:54.978Z,83.21
2023-02-24T10:57:38.248Z,83.37
2023-02-24T11:00:35.214Z,82.01
2023-02-24T11:03:08.399Z,82.58
2023-02-24T11:05:59.332Z,82.00
2023-02-24T11:08:54.699Z,83.67
2023-02-24T11:11:29.977Z,82.41
2023-02-24T11:14:21.152Z,81.80
2023-02-24T11:17:13.123Z,82.75
2023-02-24T11:19:50.331Z,82.11
2023-02-24T11:22:21.951Z,81.42
2023-02-24T11:24:50.336Z,82.43
2023-02-24T11:27:21.042Z,81.94
2023-02-24T11:30:14.948Z,81.40
2023-02-24T11:32:59.268Z,81.81
2023-02-24T11:35:33.575Z,81.10
2023-02-24T11:38:27.858Z,81.47
2023-02-24T11:41:05.356Z,81.06
2023-02-24T11:43:36.142Z,82.10
2023-02-24T11:46:12.471Z,80.62
2023-02-24T11:48:47.647Z,80.02
2023-02-24T11:51:20.104Z,78.57
2023-02-24T11:54:01.505Z,79.14
2023-02-24T11:56:33.853Z,77.30
2023-02-24T11:59:39.736Z,78.16
2023-02-24T12:02:38.642Z,76.58
2023-02-24T12:05:22.239Z,76.27
2023-02-24T12:07:52.841Z,76.41
2023-02-24T12:10:24.656Z,75.19
2023-02-24T12:13:11.462Z,76.67
2023-02-24T12:15:48.724Z,75.66
2023-02-24T12:18:24.362Z,77.32
2023-02-24T12:21:15.316Z,74.97
2023-02-24T12:23:44.906Z,75.10
2023-02-24T12:26:24.077Z,75.03
2023-02-24T12:29:16.184Z,75.42
2023-02-24T12:32:10.931Z,75.77
2023-02-24T12:35:14.151Z,75.60
2023-02-24T12:38:09.845Z,76.05
2023-02-24T12:41:06.256Z,76.63
2023-02-24T12:43:41.075Z,76.60
2023-02-24T12:46:19.900Z,75.80
2023-02-24T12:49:01.773Z,76.52
2023-02-24T12:51:28.180Z,76.07
2023-02-24T12:54:11.683Z,75.83
2023-02-24T12:57:00.039Z,76.38
2023-02-24T12:59:32.132Z,75.92
2023-02-24T13:02:01.268Z,75.72
2023-02-24T13:04:54.941Z,75.57
2023-02-24T13:07:39.676Z,75.85
2023-02-24T13:10:16.977Z,75.86
2023-02-24T13:12:50.894Z,75.71
2023-02-24T13:15:26.276Z,75.98
2023-02-24T13:17:58.033Z,75.72
2023-02-24T13:20:36.902Z,75.39
2023-02-24T13:23:18.538Z,75.17
2023-02-24T13:25:52.021Z,75.13
2023-02-24T13:28:31.160Z,76.13
2023-02-24T13:31:00.398Z,76.10
2023-02-24T13:33:43.070Z,76.33
2023-02-24T13:36:22.170Z,76.37
2023-02-24T13:38:50.007Z,75.52
2023-02-24T13:41:24.918Z,74.94
2023-02-24T13:44:02.991Z,75.20
2023-02-24T13:47:04.944Z,75.87
2023-02-24T13:49:39.883Z,75.37
2023-02-24T13:52:36.200Z,75.19
2023-02-24T13:55:20.852Z,75.80
2023-02-24T13:57:53.740Z,75.80
2023-02-24T14:00:42.256Z,75.69
2023-02-24T14:03:20.501Z,75.50
2023-02-24T14:05:48.190Z,75.80
2023-02-24T14:08:35.780Z,76.98
2023-02-24T14:11:03.960Z,77.18
2023-02-24T14:13:34.388Z,77.43
2023-02-24T14:16:06.530Z,77.75
2023-02-24T14:18:33.099Z,78.45
2023-02-24T14:20:59.614Z,78.44
2023-02-24T14:23:28.842Z,78.51
2023-02-24T14:26:18.458Z,79.07
2023-02-24T14:28:52.402Z,79.36
2023-02-24T14:31:23.276Z,79.63
2023-02-24T14:33:57.297Z,79.14
2023-02-24T14:36:28.800Z,79.34
2023-02-24T14:39:20.485Z,78.50
2023-02-24T14:41:47.800Z,76.97
2023-02-24T14:44:26.043Z,76.08
2023-02-24T14:46:55.223Z,75.61
2023-02-24T14:49:25.508Z,75.70
2023-02-24T14:52:08.853Z,76.22
2023-02-24T14:54:56.199Z,75.60
2023-02-24T14:57:27.176Z,75.52
2023-02-24T15:00:06.966Z,75.37
2023-02-24T15:02:34.190Z,75.23
2023-02-24T15:05:00.885Z,74.89
2023-02-24T15:07:32.106Z,73.66
2023-02-24T15:10:00.377Z,73.78
2023-02-24T15:12:33.543Z,73.25
2023-02-24T15:15:06.641Z,73.18
2023-02-24T15:17:37.993Z,72.58
2023-02-24T15:20:24.377Z,72.44
2023-02-24T15:22:51.909Z,72.70
2023-02-24T15:25:37.226Z,72.82
2023-02-24T15:28:07.556Z,73.01
2023-02-24T15:30:39.821Z,72.89
2023-02-24T15:33:38.176Z,73.03
2023-02-24T15:36:20.710Z,73.52
2023-02-24T15:38:52.878Z,73.87
2023-02-24T15:41:19.497Z,74.09
2023-02-24T15:43:52.923Z,72.58
2023-02-24T15:46:19.773Z,73.42
2023-02-24T15:48:49.033Z,73.19
2023-02-24T15:51:32.437Z,73.67
2023-02-24T15:54:01.338Z,73.93
2023-02-24T15:56:28.946Z,74.94
2023-02-24T15:58:55.387Z,75.80
2023-02-24T16:01:21.977Z,76.45
2023-02-24T16:03:49.613Z,77.24
2023-02-24T16:06:22.508Z,77.62
2023-02-24T16:08:50.616Z,77.30
2023-02-24T16:11:22.733Z,78.27
2023-02-24T16:13:56.506Z,78.43
2023-02-24T16:16:24.992Z,79.37
2023-02-24T16:18:52.146Z,80.16
2023-02-24T16:21:19.071Z,80.18
2023-02-24T16:23:45.710Z,80.60
2023-02-24T16:26:18.860Z,81.26
2023-02-24T16:28:56.581Z,81.86
2023-02-24T16:31:24.627Z,82.36
2023-02-24T16:33:55.340Z,83.42
2023-02-24T16:36:25.322Z,83.50
2023-02-24T16:38:52.338Z,83.90
2023-02-24T16:41:18.970Z,85.09
2023-02-24T16:43:45.460Z,85.01
2023-02-24T16:46:18.440Z,85.55
2023-02-24T16:48:47.542Z,86.45
2023-02-24T16:51:14.938Z,86.80
2023-02-24T16:53:42.099Z,86.66
2023-02-24T16:56:09.256Z,87.01
2023-02-24T16:58:36.086Z,87.09
2023-02-24T17:01:05.307Z,87.12
2023-02-24T17:03:44.828Z,88.02
2023-02-24T17:06:11.777Z,88.42
2023-02-24T17:08:38.760Z,88.65
2023-02-24T17:11:05.360Z,89.19
2023-02-24T17:13:31.882Z,89.60
2023-02-24T17:15:58.573Z,90.42
2023-02-24T17:18:26.019Z,90.20
2023-02-24T17:20:53.396Z,89.66
2023-02-24T17:23:20.641Z,90.38
2023-02-24T17:25:52.004Z,90.67
2023-02-24T17:28:18.531Z,91.15
2023-02-24T17:30:45.122Z,91.15
2023-02-24T17:33:14.228Z,90.51
2023-02-24T17:35:41.916Z,90.87
2023-02-24T17:38:15.967Z,90.76
2023-02-24T17:40:43.634Z,90.77
2023-02-24T17:43:10.470Z,90.81
2023-02-24T17:45:42.685Z,90.70
2023-02-24T17:48:09.544Z,90.72
2023-02-24T17:50:36.156Z,90.80
2023-02-24T17:53:02.854Z,90.96
2023-02-24T17:55:29.431Z,91.46
2023-02-24T17:57:57.250Z,91.49
2023-02-24T18:00:23.906Z,91.13
2023-02-24T18:02:50.490Z,90.77
2023-02-24T18:05:17.082Z,90.53
2023-02-24T18:07:43.519Z,90.87
2023-02-24T18:10:11.027Z,90.94
2023-02-24T18:12:38.523Z,90.72
2023-02-24T18:15:09.122Z,90.89
2023-02-24T18:17:37.415Z,90.96
2023-02-24T18:20:05.542Z,90.80
2023-02-24T18:22:32.054Z,91.06
2023-02-24T18:24:59.361Z,91.47
2023-02-24T18:27:25.919Z,91.34
2023-02-24T18:29:53.347Z,91.75
2023-02-24T18:32:20.295Z,91.57
2023-02-24T18:34:46.876Z,91.33
2023-02-24T18:37:13.327Z,91.34
2023-02-24T18:39:39.767Z,91.59
2023-02-24T18:42:06.217Z,91.62
2023-02-24T18:44:32.728Z,92.07
2023-02-24T18:46:59.224Z,92.30
2023-02-24T18:49:25.829Z,91.40
2023-02-24T18:51:52.374Z,90.78
2023-02-24T18:54:20.182Z,91.04
2023-02-24T18:56:46.733Z,91.59
2023-02-24T18:59:13.236Z,91.98
2023-02-24T19:01:40.244Z,92.32
2023-02-24T19:04:07.691Z,92.63
2023-02-24T19:06:34.990Z,92.20
2023-02-24T19:09:07.230Z,91.58
2023-02-24T19:11:34.288Z,91.62
2023-02-24T19:14:01.349Z,91.73
2023-02-24T19:16:28.468Z,92.20
2023-02-24T19:18:56.774Z,91.92
2023-02-24T19:21:24.701Z,92.90
2023-02-24T19:23:51.662Z,92.80
2023-02-24T19:26:24.113Z,92.70
2023-02-24T19:28:51.548Z,92.93
2023-02-24T19:31:23.870Z,93.29
2023-02-24T19:34:01.803Z,93.33
2023-02-24T19:36:30.575Z,93.18
2023-02-24T19:38:57.023Z,92.95
2023-02-24T19:41:24.108Z,92.93
2023-02-24T19:43:50.595Z,93.30
2023-02-24T19:46:17.527Z,94.06
2023-02-24T19:48:43.978Z,94.75
2023-02-24T19:51:16.655Z,95.03
2023-02-24T19:53:43.624Z,95.08
2023-02-24T19:56:10.339Z,95.36
2023-02-24T19:58:37.055Z,95.61
2023-02-24T20:01:09.401Z,96.37
2023-02-24T20:03:37.134Z,96.97
2023-02-24T20:06:04.228Z,97.44
2023-02-24T20:08:30.635Z,97.72
2023-02-24T20:11:01.481Z,97.59
2023-02-24T20:13:29.131Z,96.60
2023-02-24T20:16:08.988Z,96.38
2023-02-24T20:18:35.495Z,96.00
2023-02-24T20:21:01.977Z,95.61
2023-02-24T20:23:29.300Z,95.00
2023-02-24T20:25:56.815Z,94.82
2023-02-24T20:28:23.828Z,94.88
2023-02-24T20:30:51.230Z,94.87
2023-02-24T20:33:18.450Z,95.24
2023-02-24T20:35:44.916Z,95.46
2023-02-24T20:38:12.200Z,95.35
2023-02-24T20:40:39.434Z,94.85
2023-02-24T20:43:08.026Z,94.39
2023-02-24T20:45:36.330Z,93.27
2023-02-24T20:48:03.528Z,92.81
2023-02-24T20:50:30.603Z,92.46
2023-02-24T20:52:57.026Z,92.73
2023-02-24T20:55:23.492Z,91.83
2023-02-24T20:57:50.255Z,91.26
2023-02-24T21:00:17.287Z,91.45
2023-02-24T21:02:44.108Z,91.42
2023-02-24T21:05:19.201Z,91.98
2023-02-24T21:07:45.897Z,91.60
2023-02-24T21:10:12.596Z,91.70
2023-02-24T21:12:39.025Z,91.76
2023-02-24T21:15:06.399Z,91.62
2023-02-24T21:17:34.373Z,91.38
2023-02-24T21:20:01.699Z,91.44
2023-02-24T21:22:31.388Z,91.10
2023-02-24T21:24:58.673Z,90.74
2023-02-24T21:27:26.025Z,90.15
2023-02-24T21:29:53.440Z,90.20
2023-02-24T21:32:20.000Z,90.47
2023-02-24T21:34:46.723Z,90.42
2023-02-24T21:37:13.214Z,89.69
2023-02-24T21:39:39.677Z,90.00
2023-02-24T21:42:07.445Z,89.22
2023-02-24T21:44:33.879Z,88.42
2023-02-24T21:47:00.345Z,87.94
2023-02-24T21:49:26.857Z,88.41
2023-02-24T21:51:55.185Z,88.57
2023-02-24T21:54:22.029Z,87.82
2023-02-24T21:56:48.624Z,87.62
2023-02-24T21:59:15.136Z,87.42
2023-02-24T22:01:44.713Z,87.50
2023-02-24T22:04:17.960Z,87.45
2023-02-24T22:06:44.898Z,87.06
2023-02-24T22:09:14.616Z,87.07
2023-02-24T22:11:41.602Z,87.12
2023-02-24T22:14:08.852Z,87.22
2023-02-24T22:16:35.673Z,87.07
2023-02-24T22:19:03.184Z,86.74
2023-02-24T22:21:30.989Z,86.55
2023-02-24T22:24:00.370Z,86.46
2023-02-24T22:26:28.864Z,86.28
2023-02-24T22:28:56.345Z,86.40
2023-02-24T22:31:27.520Z,85.75
2023-02-24T22:33:54.144Z,86.00
2023-02-24T22:36:25.161Z,86.99
2023-02-24T22:38:52.676Z,87.76
2023-02-24T22:41:22.146Z,88.43
2023-02-24T22:43:48.820Z,89.16
2023-02-24T22:46:18.885Z,90.07
2023-02-24T22:48:45.414Z,90.48
2023-02-24T22:51:13.291Z,90.72
2023-02-24T22:53:42.386Z,90.76
2023-02-24T22:56:11.862Z,90.88
2023-02-24T22:58:38.692Z,90.98
2023-02-24T23:01:18.426Z,90.65
2023-02-24T23:03:46.162Z,90.51
2023-02-24T23:06:21.944Z,90.84
2023-02-24T23:08:50.807Z,92.14
2023-02-24T23:11:24.716Z,91.83
2023-02-24T23:13:51.906Z,90.84
2023-02-24T23:16:25.215Z,91.70
2023-02-24T23:18:54.181Z,92.43
2023-02-24T23:21:24.912Z,93.60
2023-02-24T23:23:56.833Z,93.95
2023-02-24T23:26:39.177Z,94.49
2023-02-24T23:29:06.316Z,94.82
2023-02-24T23:31:33.293Z,94.41
2023-02-24T23:33:59.792Z,94.30
2023-02-24T23:36:26.447Z,94.17
2023-02-24T23:38:53.141Z,93.82
2023-02-24T23:41:19.634Z,94.06
2023-02-24T23:43:46.245Z,93.31
2023-02-24T23:46:13.563Z,92.10
2023-02-24T23:48:40.679Z,92.05
2023-02-24T23:51:09.142Z,91.78
2023-02-24T23:53:40.123Z,91.32
2023-02-24T23:56:31.686Z,91.72
2023-02-24T23:58:59.321Z,91.38
